Cottonwd Hgts, Utah
Current Conditions -  °F | °C
As of 11:53 PM on Wednesday 26 Nov 2014 (Local Time) from KSLC Reporting Station
Few Clouds Few Clouds  
Wind Chill: 39°   Ceiling: Unl
Heat Index: 45°   Visibility: 10mi
Dew Point: 29°   Wind: 13mph
Humidity: 53%   Direction: 140°SE
Pressure: 30.34"   Gusts: NA
Location:  40.615°N, 111.891°W
Report Text: KSLC 270653Z 14011KT 10SM FEW200 07/M02 A3034 RMK AO2 SLP258 T00721017 401610017
Loading
Personal Weather Stations






























Interactive Weather Map New forecast layout! Learn more

10-Day Weather Forecast

Advertisements
Track Severe Weather on mobile